Time;durP1;ratioP1;P1;durP2;ratioP2;P2;SDS_P1;SDS_P2;PMS_P1;PMS_P2;Temp;Humidity;BMP_temperature;BMP_pressure;BME280_temperature;BME280_humidity;BME280_pressure;Samples;Min_cycle;Max_cycle;Signal;HPM_P1;HPM_P2
2022/06/07 00:02:19;;;;;;;95.80;40.17;;;;;;;12.39;100.00;101301.28;5036802;28;20143;-45
2022/06/07 00:04:44;;;;;;;102.88;39.50;;;;;;;12.39;100.00;101295.06;5036952;28;20017;-46
2022/06/07 00:07:10;;;;;;;104.10;41.53;;;;;;;12.42;100.00;101297.41;5035450;28;20095;-43
2022/06/07 00:09:35;;;;;;;117.72;41.75;;;;;;;12.43;100.00;101299.94;5031177;28;20017;-44
2022/06/07 00:12:01;;;;;;;107.40;43.10;;;;;;;12.44;100.00;101298.09;5037075;28;20319;-47
2022/06/07 00:14:28;;;;;;;110.75;42.97;;;;;;;12.43;100.00;101299.09;5037152;28;20056;-45
2022/06/07 00:16:56;;;;;;;113.20;42.80;;;;;;;12.41;100.00;101296.59;5027010;28;20029;-45
2022/06/07 00:19:22;;;;;;;113.90;44.58;;;;;;;12.43;100.00;101293.75;5025322;28;20016;-44
2022/06/07 00:21:47;;;;;;;106.72;44.60;;;;;;;12.42;100.00;101292.06;5035264;28;20487;-45
2022/06/07 00:24:13;;;;;;;117.28;46.40;;;;;;;12.41;100.00;101287.72;5036897;28;20065;-45
2022/06/07 00:26:39;;;;;;;118.65;46.08;;;;;;;12.40;100.00;101281.50;5035278;28;20483;-44
2022/06/07 00:29:06;;;;;;;127.10;46.78;;;;;;;12.39;100.00;101282.53;5036106;28;20591;-48
2022/06/07 00:31:32;;;;;;;123.05;46.17;;;;;;;12.41;100.00;101274.31;5036562;28;20110;-44
2022/06/07 00:33:58;;;;;;;117.65;45.33;;;;;;;12.42;100.00;101279.53;5036497;28;20025;-44
2022/06/07 00:36:23;;;;;;;125.45;45.90;;;;;;;12.43;100.00;101281.19;5035189;28;20028;-45
2022/06/07 00:38:48;;;;;;;121.63;47.78;;;;;;;12.45;100.00;101275.66;5035507;28;20407;-47
2022/06/07 00:41:13;;;;;;;114.70;46.78;;;;;;;12.45;100.00;101267.63;5037022;28;20032;-44
2022/06/07 00:43:41;;;;;;;128.23;48.17;;;;;;;12.46;100.00;101269.31;5037009;28;20442;-45
2022/06/07 00:46:10;;;;;;;132.20;50.42;;;;;;;12.45;100.00;101271.13;5036634;28;20032;-47
2022/06/07 00:48:36;;;;;;;133.90;49.60;;;;;;;12.47;100.00;101266.47;5035869;28;20223;-47
2022/06/07 00:51:08;;;;;;;133.10;48.08;;;;;;;12.49;100.00;101268.97;5035528;28;20531;-47
2022/06/07 00:53:35;;;;;;;132.73;49.53;;;;;;;12.47;100.00;101262.94;5025274;28;20104;-44
2022/06/07 00:56:01;;;;;;;123.13;48.40;;;;;;;12.49;100.00;101263.59;5038041;28;20013;-47
2022/06/07 00:58:29;;;;;;;125.32;48.00;;;;;;;12.47;100.00;101263.81;5040272;28;20525;-46
2022/06/07 01:00:56;;;;;;;128.98;49.75;;;;;;;12.50;100.00;101255.41;5039913;28;20079;-47
2022/06/07 01:03:23;;;;;;;130.23;48.92;;;;;;;12.48;100.00;101251.22;5039238;28;20366;-44
2022/06/07 01:05:52;;;;;;;128.73;48.15;;;;;;;12.49;100.00;101248.41;5039527;28;20025;-46
2022/06/07 01:11:02;;;;;;;118.80;45.78;;;;;;;12.53;100.00;101258.78;5039818;28;20166;-47
2022/06/07 01:13:32;;;;;;;121.47;47.05;;;;;;;12.53;100.00;101250.75;5039105;28;20036;-44
2022/06/07 01:16:01;;;;;;;123.60;45.72;;;;;;;12.56;100.00;101251.25;5039943;28;20094;-44
2022/06/07 01:18:28;;;;;;;120.20;45.47;;;;;;;12.58;100.00;101251.94;5028127;28;20040;-44
2022/06/07 01:21:20;;;;;;;118.95;46.75;;;;;;;12.60;100.00;101252.59;5039723;28;20029;-45
2022/06/07 01:23:47;;;;;;;115.70;46.13;;;;;;;12.61;100.00;101246.25;5015389;28;20024;-49
2022/06/07 01:26:13;;;;;;;112.03;46.35;;;;;;;12.63;100.00;101246.09;5040035;28;20054;-44
2022/06/07 01:28:39;;;;;;;111.20;46.28;;;;;;;12.61;100.00;101240.03;5039609;28;20053;-44
2022/06/07 01:31:05;;;;;;;115.45;45.63;;;;;;;12.60;100.00;101238.38;5039259;28;20149;-47
2022/06/07 01:33:31;;;;;;;114.43;45.97;;;;;;;12.57;100.00;101236.84;5039163;28;20099;-45
2022/06/07 01:36:02;;;;;;;111.88;44.40;;;;;;;12.55;100.00;101235.34;5038780;28;20407;-46
2022/06/07 01:38:30;;;;;;;109.07;43.92;;;;;;;12.56;100.00;101231.63;5038608;28;20036;-46
2022/06/07 01:43:39;;;;;;;103.65;43.80;;;;;;;12.53;100.00;101235.50;5028419;28;20465;-46
2022/06/07 01:46:05;;;;;;;108.30;42.58;;;;;;;12.53;100.00;101227.47;5037201;28;20025;-44
2022/06/07 01:48:30;;;;;;;120.05;43.70;;;;;;;12.50;100.00;101225.94;5037329;28;20025;-45
2022/06/07 01:51:04;;;;;;;120.43;43.50;;;;;;;12.50;100.00;101215.22;5038504;28;20094;-43
2022/06/07 01:53:29;;;;;;;116.68;43.75;;;;;;;12.48;100.00;101209.19;5038714;28;20524;-46
2022/06/07 01:56:03;;;;;;;107.95;43.10;;;;;;;12.45;100.00;101214.06;5038266;28;20092;-47
2022/06/07 01:58:29;;;;;;;101.38;40.58;;;;;;;12.45;100.00;101214.06;5038739;28;20032;-45
2022/06/07 02:00:54;;;;;;;100.05;41.97;;;;;;;12.43;100.00;101214.22;5039268;28;20009;-45
2022/06/07 02:03:19;;;;;;;99.97;39.50;;;;;;;12.45;100.00;101216.72;5039004;28;20032;-45
2022/06/07 02:06:02;;;;;;;99.43;39.85;;;;;;;12.45;100.00;101219.41;5038350;28;20036;-46
2022/06/07 02:08:28;;;;;;;83.95;36.22;;;;;;;12.45;100.00;101214.06;5015028;28;20686;-44
2022/06/07 02:10:54;;;;;;;86.43;38.58;;;;;;;12.44;100.00;101213.22;5037027;28;20029;-44
2022/06/07 02:13:20;;;;;;;85.43;35.88;;;;;;;12.46;100.00;101221.09;5038832;28;20084;-44
2022/06/07 02:15:47;;;;;;;85.53;35.47;;;;;;;12.48;100.00;101211.03;5039030;28;20078;-45
2022/06/07 02:18:13;;;;;;;86.82;34.80;;;;;;;12.46;100.00;101203.19;5027209;28;20109;-45
2022/06/07 02:20:39;;;;;;;72.20;32.63;;;;;;;12.45;100.00;101212.19;5038820;28;20037;-46
2022/06/07 02:23:06;;;;;;;74.18;32.90;;;;;;;12.42;100.00;101204.53;5037430;28;20048;-46
2022/06/07 02:25:43;;;;;;;77.80;32.00;;;;;;;12.40;100.00;101203.81;5037673;28;20083;-44
2022/06/07 02:28:11;;;;;;;71.57;31.38;;;;;;;12.39;100.00;101207.53;5038249;28;20491;-45
2022/06/07 02:30:38;;;;;;;70.47;31.90;;;;;;;12.37;100.00;101201.47;5036578;28;20135;-46
2022/06/07 02:33:03;;;;;;;79.22;28.58;;;;;;;12.35;100.00;101191.94;5032722;28;20377;-43
2022/06/07 02:35:28;;;;;;;66.80;31.25;;;;;;;12.36;100.00;101204.34;5038726;28;20123;-45
2022/06/07 02:37:54;;;;;;;63.28;29.30;;;;;;;12.36;100.00;101201.66;5035810;28;20558;-44
2022/06/07 02:40:19;;;;;;;64.20;28.95;;;;;;;12.37;100.00;101200.63;5037657;28;20519;-47
2022/06/07 02:42:45;;;;;;;76.78;31.17;;;;;;;12.38;100.00;101197.78;5038359;28;20021;-46
2022/06/07 02:45:11;;;;;;;63.88;27.35;;;;;;;12.35;100.00;101191.94;5038753;28;20576;-47
2022/06/07 02:47:36;;;;;;;61.70;27.17;;;;;;;12.35;100.00;101192.75;5037968;28;20028;-43
2022/06/07 02:50:02;;;;;;;63.17;27.65;;;;;;;12.35;100.00;101192.75;5038115;28;20336;-44
2022/06/07 02:52:28;;;;;;;64.85;28.33;;;;;;;12.33;100.00;101192.09;5036464;28;20507;-46
2022/06/07 02:54:53;;;;;;;63.92;26.70;;;;;;;12.34;100.00;101193.78;5028725;28;20021;-43
2022/06/07 02:57:18;;;;;;;60.05;27.50;;;;;;;12.32;100.00;101187.72;5038124;28;20029;-46
2022/06/07 02:59:44;;;;;;;55.20;25.80;;;;;;;12.28;100.00;101192.56;5038666;28;20029;-44
2022/06/07 03:02:09;;;;;;;60.00;25.42;;;;;;;12.28;100.00;101189.91;5038550;28;20025;-45
2022/06/07 03:04:34;;;;;;;55.10;26.42;;;;;;;12.24;100.00;101185.88;5038165;28;20471;-43
2022/06/07 03:07:00;;;;;;;55.35;25.25;;;;;;;12.21;100.00;101186.22;5028409;28;20025;-44
2022/06/07 03:09:26;;;;;;;53.83;24.83;;;;;;;12.24;100.00;101196.59;5030061;28;20055;-46
2022/06/07 03:11:52;;;;;;;54.63;23.42;;;;;;;12.21;100.00;101194.25;5038069;28;20423;-47
2022/06/07 03:14:18;;;;;;;53.47;23.50;;;;;;;12.19;100.00;101198.94;5037388;28;20075;-48
2022/06/07 03:16:43;;;;;;;54.45;24.00;;;;;;;12.17;100.00;101195.59;5038737;28;20527;-48
2022/06/07 03:19:08;;;;;;;55.03;23.88;;;;;;;12.15;100.00;101196.72;5035964;28;20098;-48
2022/06/07 03:21:34;;;;;;;54.95;23.58;;;;;;;12.16;100.00;101201.94;5036477;28;20025;-43
2022/06/07 03:23:59;;;;;;;47.75;22.90;;;;;;;12.17;100.00;101203.63;5036308;28;20025;-47
2022/06/07 03:26:24;;;;;;;56.63;23.90;;;;;;;12.18;100.00;101199.91;5037240;28;20090;-43
2022/06/07 03:28:50;;;;;;;49.63;22.38;;;;;;;12.20;100.00;101202.44;5037267;28;20099;-46
2022/06/07 03:31:17;;;;;;;58.97;22.90;;;;;;;12.19;100.00;101201.59;5037390;28;20075;-47
2022/06/07 03:33:44;;;;;;;51.40;23.15;;;;;;;12.18;100.00;101207.94;5037680;28;20025;-46
2022/06/07 03:36:12;;;;;;;53.83;23.30;;;;;;;12.17;100.00;101206.28;5036867;28;20041;-45
2022/06/07 03:38:38;;;;;;;47.63;22.55;;;;;;;12.15;100.00;101213.63;5036284;28;20021;-43
2022/06/07 03:41:04;;;;;;;50.50;21.83;;;;;;;12.11;100.00;101214.97;5036841;28;20051;-43
2022/06/07 03:43:29;;;;;;;49.72;22.42;;;;;;;12.11;100.00;101223.81;5037316;28;20442;-44
2022/06/07 03:45:55;;;;;;;46.33;21.58;;;;;;;12.14;100.00;101222.69;5036978;28;20021;-48
2022/06/07 03:48:21;;;;;;;42.75;21.40;;;;;;;12.11;100.00;101223.81;5037194;28;20055;-46
2022/06/07 03:50:46;;;;;;;44.15;21.02;;;;;;;12.13;100.00;101224.53;5037283;28;20428;-44
2022/06/07 03:53:12;;;;;;;54.63;20.77;;;;;;;12.17;100.00;101226.84;5035975;28;20075;-43
2022/06/07 03:55:47;;;;;;;49.25;21.05;;;;;;;12.15;100.00;101228.84;5034741;28;20127;-46
2022/06/07 03:58:13;;;;;;;54.13;22.00;;;;;;;12.19;100.00;101231.06;5034851;28;20026;-47
2022/06/07 04:00:38;;;;;;;51.47;20.50;;;;;;;12.22;100.00;101229.88;5034750;28;20032;-44
2022/06/07 04:03:03;;;;;;;50.50;21.15;;;;;;;12.21;100.00;101229.06;5036268;28;20095;-45
2022/06/07 04:05:29;;;;;;;45.95;19.85;;;;;;;12.20;100.00;101229.22;5036679;28;20057;-46
2022/06/07 04:08:12;;;;;;;48.63;20.30;;;;;;;12.17;100.00;101233.06;5034860;28;20078;-47
2022/06/07 04:10:55;;;;;;;48.97;20.40;;;;;;;12.17;100.00;101227.72;5036060;28;20118;-47
2022/06/07 04:13:23;;;;;;;46.97;19.25;;;;;;;12.17;100.00;101234.88;5037208;28;20029;-45
2022/06/07 04:15:48;;;;;;;48.95;19.98;;;;;;;12.13;100.00;101229.88;5035939;28;20036;-45
2022/06/07 04:18:14;;;;;;;45.75;18.42;;;;;;;12.15;100.00;101229.69;5037063;28;20385;-47
2022/06/07 04:20:39;;;;;;;40.65;19.42;;;;;;;12.15;100.00;101234.22;5052746;28;20104;-47
2022/06/07 04:23:06;;;;;;;46.97;20.10;;;;;;;12.17;100.00;101240.25;5035585;28;20021;-44
2022/06/07 04:25:39;;;;;;;52.05;20.40;;;;;;;12.17;100.00;101235.75;5023788;28;20022;-42
2022/06/07 04:28:04;;;;;;;46.55;21.33;;;;;;;12.18;100.00;101237.41;5015305;28;20073;-44
2022/06/07 04:30:30;;;;;;;59.55;21.55;;;;;;;12.21;100.00;101238.94;5015309;28;20032;-45
2022/06/07 04:32:56;;;;;;;51.10;20.85;;;;;;;12.21;100.00;101239.75;5016197;28;20021;-44
2022/06/07 04:35:22;;;;;;;51.30;22.20;;;;;;;12.21;100.00;101242.44;5021369;28;20028;-44
2022/06/07 04:37:48;;;;;;;50.80;21.58;;;;;;;12.24;100.00;101235.94;5020007;28;20333;-43
2022/06/07 04:40:15;;;;;;;48.53;22.10;;;;;;;12.25;100.00;101243.81;5019744;28;20048;-46
2022/06/07 04:42:41;;;;;;;55.33;22.02;;;;;;;12.28;100.00;101240.78;5021529;28;20194;-43
2022/06/07 04:45:11;;;;;;;50.95;21.00;;;;;;;12.30;100.00;101243.31;5016829;28;20029;-44
2022/06/07 04:47:37;;;;;;;57.53;22.73;;;;;;;12.32;100.00;101243.97;5020119;28;20033;-45
2022/06/07 04:50:04;;;;;;;53.40;22.45;;;;;;;12.32;100.00;101241.28;5020214;28;20036;-46
2022/06/07 04:52:30;;;;;;;51.65;22.17;;;;;;;12.34;100.00;101243.81;5017141;28;20059;-44
2022/06/07 04:54:55;;;;;;;55.47;23.35;;;;;;;12.37;100.00;101243.50;5019938;28;20133;-45
2022/06/07 04:57:20;;;;;;;48.42;22.33;;;;;;;12.39;100.00;101242.34;5019868;28;20028;-45
2022/06/07 04:59:46;;;;;;;57.85;25.48;;;;;;;12.43;100.00;101248.22;5017333;28;20341;-46
2022/06/07 05:02:11;;;;;;;52.25;22.35;;;;;;;12.50;100.00;101230.47;5028197;28;20063;-45
2022/06/07 05:04:37;;;;;;;65.43;24.48;;;;;;;12.56;100.00;101240.53;5028453;28;20033;-43
2022/06/07 05:07:02;;;;;;;62.90;23.77;;;;;;;12.64;100.00;101245.06;5021326;28;20030;-44
2022/06/07 05:09:29;;;;;;;60.15;23.58;;;;;;;12.66;100.00;101238.53;5018440;28;20586;-45
2022/06/07 05:11:54;;;;;;;60.72;24.52;;;;;;;12.73;100.00;101248.59;5032925;28;20741;-45
2022/06/07 05:14:21;;;;;;;61.17;24.85;;;;;;;12.77;100.00;101250.78;5018955;28;20076;-47
2022/06/07 05:16:48;;;;;;;60.28;24.35;;;;;;;12.83;100.00;101251.94;5028444;28;20131;-46
2022/06/07 05:19:14;;;;;;;60.50;24.10;;;;;;;12.87;100.00;101248.78;5019793;28;20124;-47
2022/06/07 05:21:40;;;;;;;61.83;25.08;;;;;;;12.90;100.00;101255.66;5019294;28;20507;-46
2022/06/07 05:24:06;;;;;;;67.68;25.27;;;;;;;12.92;100.00;101261.69;5019442;28;20356;-44
2022/06/07 05:26:33;;;;;;;62.80;25.45;;;;;;;12.91;100.00;101251.97;5023996;28;20069;-44
2022/06/07 05:28:59;;;;;;;72.10;26.35;;;;;;;12.91;100.00;101246.59;5019233;28;20046;-44
2022/06/07 05:31:25;;;;;;;71.30;27.25;;;;;;;12.91;100.00;101256.50;5019811;28;20076;-43
2022/06/07 05:33:50;;;;;;;72.38;26.45;;;;;;;12.94;100.00;101251.63;5019353;28;20455;-44
2022/06/07 05:36:16;;;;;;;73.55;27.45;;;;;;;12.96;100.00;101254.16;5023569;28;20166;-49
2022/06/07 05:38:42;;;;;;;74.55;27.98;;;;;;;12.96;100.00;101259.50;5039556;28;20041;-45
2022/06/07 05:41:12;;;;;;;80.15;28.95;;;;;;;12.99;100.00;101264.53;5033310;28;20029;-45
2022/06/07 05:43:38;;;;;;;66.93;28.92;;;;;;;12.98;100.00;101249.44;5035937;28;20393;-47
2022/06/07 05:46:03;;;;;;;70.68;27.02;;;;;;;12.97;100.00;101255.84;5037268;28;20302;-47
2022/06/07 05:48:33;;;;;;;74.35;28.73;;;;;;;12.95;100.00;101256.00;5035891;28;20570;-45
2022/06/07 05:50:58;;;;;;;72.68;29.60;;;;;;;12.99;100.00;101253.81;5036895;28;20974;-46
2022/06/07 05:53:23;;;;;;;78.32;30.10;;;;;;;13.03;100.00;101252.47;5037245;28;20091;-44
2022/06/07 05:55:49;;;;;;;73.85;29.27;;;;;;;13.07;100.00;101261.88;5037587;28;20159;-43
2022/06/07 05:58:14;;;;;;;72.78;29.65;;;;;;;13.10;100.00;101263.38;5035314;28;20070;-45
2022/06/07 06:00:40;;;;;;;73.90;29.88;;;;;;;13.14;100.00;101260.19;5008069;28;20029;-44
2022/06/07 06:03:06;;;;;;;83.47;29.67;;;;;;;13.24;100.00;101268.06;5036514;28;20344;-44
2022/06/07 06:05:35;;;;;;;81.28;30.33;;;;;;;13.24;100.00;101265.41;5036627;28;20123;-46
2022/06/07 06:10:44;;;;;;;80.60;30.95;;;;;;;13.30;100.00;101259.34;5033777;28;20135;-44
2022/06/07 06:13:10;;;;;;;84.95;31.20;;;;;;;13.35;100.00;101262.38;5036774;28;20551;-44
2022/06/07 06:15:36;;;;;;;74.13;30.15;;;;;;;13.46;100.00;101274.63;5036513;28;20687;-44
2022/06/07 06:18:03;;;;;;;81.18;30.80;;;;;;;13.47;100.00;101275.47;5035287;28;20041;-45
2022/06/07 06:20:29;;;;;;;80.85;30.27;;;;;;;13.56;100.00;101279.78;5035310;28;20029;-48
2022/06/07 06:22:54;;;;;;;81.68;30.15;;;;;;;13.57;100.00;101274.25;5034136;28;20025;-46
2022/06/07 06:25:19;;;;;;;79.40;31.48;;;;;;;13.58;100.00;101267.91;5033253;28;20025;-46
2022/06/07 06:27:45;;;;;;;88.38;32.13;;;;;;;13.61;100.00;101259.50;5033750;28;20302;-45
2022/06/07 06:30:11;;;;;;;82.93;32.35;;;;;;;13.68;100.00;101269.53;5035213;28;20025;-46
2022/06/07 06:32:37;;;;;;;91.20;32.08;;;;;;;13.91;100.00;101264.28;5036105;28;20021;-47
2022/06/07 06:35:03;;;;;;;80.25;33.80;;;;;;;14.09;100.00;101266.75;5019087;28;20047;-46
2022/06/07 06:37:29;;;;;;;96.22;33.67;;;;;;;14.37;100.00;101261.75;5020952;28;20021;-45
2022/06/07 06:39:55;;;;;;;94.28;35.22;;;;;;;14.55;100.00;101274.94;5026838;28;20025;-45
2022/06/07 06:42:20;;;;;;;96.40;34.88;;;;;;;14.70;100.00;101275.88;5017438;28;20425;-44
2022/06/07 06:44:46;;;;;;;93.75;34.50;;;;;;;14.81;100.00;101266.53;5019778;28;20033;-45
2022/06/07 06:47:13;;;;;;;99.82;35.90;;;;;;;14.92;100.00;101271.53;5034217;28;20032;-43
2022/06/07 06:49:39;;;;;;;94.93;37.17;;;;;;;14.97;100.00;101267.44;5034945;28;20428;-49
2022/06/07 06:52:05;;;;;;;103.22;40.35;;;;;;;14.89;100.00;101268.34;5016313;28;20025;-44
2022/06/07 06:54:33;;;;;;;120.80;39.47;;;;;;;14.98;100.00;101274.50;5017475;28;20091;-45
2022/06/07 06:56:58;;;;;;;103.55;40.25;;;;;;;15.01;100.00;101280.38;5020386;28;20024;-45
2022/06/07 06:59:24;;;;;;;102.80;38.30;;;;;;;15.01;100.00;101274.16;5015044;28;20116;-46
2022/06/07 07:01:50;;;;;;;120.53;40.58;;;;;;;15.01;100.00;101272.28;5023994;28;20112;-45
2022/06/07 07:04:17;;;;;;;104.18;39.33;;;;;;;15.17;100.00;101274.00;5018137;28;20047;-44
2022/06/07 07:06:45;;;;;;;110.10;41.50;;;;;;;15.29;100.00;101283.34;5028521;28;20096;-45
2022/06/07 07:09:11;;;;;;;114.88;42.25;;;;;;;15.32;100.00;101284.81;5031951;28;20112;-46
2022/06/07 07:11:49;;;;;;;104.07;40.75;;;;;;;15.33;100.00;101283.81;5034376;28;20029;-44
2022/06/07 07:14:15;;;;;;;105.95;41.00;;;;;;;15.37;100.00;101286.97;5030178;28;20036;-45
2022/06/07 07:16:44;;;;;;;114.68;42.58;;;;;;;15.43;100.00;101281.69;5033568;28;20112;-46
2022/06/07 07:19:10;;;;;;;113.75;43.60;;;;;;;15.50;100.00;101283.66;5033528;28;20025;-44
2022/06/07 07:21:38;;;;;;;115.40;41.85;;;;;;;15.53;100.00;101275.19;5029638;28;20063;-44
2022/06/07 07:24:08;;;;;;;118.85;45.72;;;;;;;15.59;100.00;101282.56;5016446;28;20066;-45
2022/06/07 07:26:35;;;;;;;119.82;46.70;;;;;;;15.73;100.00;101284.41;5010398;28;20048;-45
2022/06/07 07:29:01;;;;;;;136.95;51.72;;;;;;;15.72;100.00;101277.38;5020317;28;20041;-45
2022/06/07 07:31:32;;;;;;;127.03;44.85;;;;;;;15.78;100.00;101283.91;5016466;28;20025;-46
2022/06/07 07:34:00;;;;;;;114.30;45.97;;;;;;;15.85;100.00;101291.06;5016630;28;20024;-47
2022/06/07 07:36:26;;;;;;;126.60;47.13;;;;;;;16.11;100.00;101286.25;5025302;28;20116;-44
2022/06/07 07:38:52;;;;;;;119.13;47.92;;;;;;;16.13;100.00;101284.19;5033396;28;20032;-45
2022/06/07 07:41:25;;;;;;;128.00;49.28;;;;;;;16.03;100.00;101290.69;5032200;28;20383;-46
2022/06/07 07:43:52;;;;;;;124.13;50.03;;;;;;;16.05;100.00;101293.19;5032874;28;20393;-42
2022/06/07 07:46:19;;;;;;;119.68;51.30;;;;;;;15.95;100.00;101289.94;5033328;28;20055;-48
2022/06/07 07:48:45;;;;;;;114.00;51.42;;;;;;;15.89;100.00;101288.00;5031729;28;20082;-44
2022/06/07 07:51:19;;;;;;;122.90;51.75;;;;;;;15.76;100.00;101284.09;5030708;28;20479;-46
2022/06/07 07:53:45;;;;;;;123.38;50.03;;;;;;;15.89;100.00;101282.63;5025080;28;20528;-47
2022/06/07 07:56:10;;;;;;;130.38;53.95;;;;;;;16.00;100.00;101279.44;5008217;28;20100;-46
2022/06/07 07:58:36;;;;;;;126.15;53.25;;;;;;;15.99;100.00;101280.50;5013683;28;20029;-49
2022/06/07 08:01:11;;;;;;;136.52;53.90;;;;;;;15.91;100.00;101292.19;5004777;28;20523;-44
2022/06/07 08:03:38;;;;;;;131.95;54.00;;;;;;;15.96;100.00;101286.25;5024261;28;20363;-44
2022/06/07 08:06:05;;;;;;;129.55;53.95;;;;;;;15.96;100.00;101283.56;5030843;28;20024;-46
2022/06/07 08:08:30;;;;;;;130.95;52.58;;;;;;;16.04;100.00;101286.16;5016937;28;20017;-45
2022/06/07 08:10:56;;;;;;;131.80;51.50;;;;;;;16.11;100.00;101283.56;5021686;28;20083;-45
2022/06/07 08:13:21;;;;;;;129.43;52.42;;;;;;;16.22;100.00;101281.22;5025026;28;20686;-45
2022/06/07 08:15:46;;;;;;;133.98;51.35;;;;;;;16.52;100.00;101277.63;5027194;28;20033;-49
2022/06/07 08:18:12;;;;;;;123.10;51.90;;;;;;;16.83;100.00;101274.63;5034475;28;20103;-44
2022/06/07 08:20:38;;;;;;;130.15;52.83;;;;;;;16.95;100.00;101281.25;5027585;28;20649;-44
2022/06/07 08:23:05;;;;;;;128.57;52.55;;;;;;;17.04;100.00;101279.25;5023634;28;20447;-46
2022/06/07 08:25:31;;;;;;;120.32;53.42;;;;;;;17.10;100.00;101278.44;5025545;28;20040;-49
2022/06/07 08:27:57;;;;;;;138.43;56.00;;;;;;;17.12;100.00;101283.66;5033990;28;20059;-44
2022/06/07 08:30:22;;;;;;;134.25;56.78;;;;;;;17.14;100.00;101282.44;5021024;28;20029;-47
2022/06/07 08:32:48;;;;;;;145.77;56.03;;;;;;;17.14;100.00;101279.75;5021442;28;20295;-45
2022/06/07 08:38:00;;;;;;;132.07;54.65;;;;;;;17.74;100.00;101283.94;5016676;28;20036;-44
2022/06/07 08:40:35;;;;;;;134.63;55.50;;;;;;;17.73;100.00;101287.69;5033419;28;20052;-45
2022/06/07 08:43:07;;;;;;;156.95;57.08;;;;;;;17.63;100.00;101283.44;5033522;28;20579;-43
2022/06/07 08:45:37;;;;;;;121.15;53.95;;;;;;;17.69;100.00;101277.25;5022551;28;20029;-46
2022/06/07 08:48:14;;;;;;;123.97;55.50;;;;;;;17.70;100.00;101278.94;5014418;28;20505;-44
2022/06/07 08:50:45;;;;;;;124.07;55.50;;;;;;;17.98;100.00;101282.66;5015331;28;20112;-46
2022/06/07 08:53:20;;;;;;;132.43;56.33;;;;;;;18.18;100.00;101282.78;5015714;28;20063;-45
2022/06/07 08:55:57;;;;;;;130.80;56.15;;;;;;;18.25;100.00;101275.53;5014795;28;20028;-49
2022/06/07 08:58:33;;;;;;;136.73;58.90;;;;;;;18.32;100.00;101278.25;5021809;28;20021;-48
2022/06/07 09:01:09;;;;;;;142.40;57.05;;;;;;;18.38;100.00;101277.44;5020271;28;20029;-44
2022/06/07 09:03:35;;;;;;;124.47;56.65;;;;;;;18.20;100.00;101281.53;5024393;28;20108;-43
2022/06/07 09:06:04;;;;;;;132.00;61.20;;;;;;;18.07;100.00;101285.00;5031936;28;20638;-45
2022/06/07 09:08:42;;;;;;;130.13;58.63;;;;;;;18.00;100.00;101276.00;5020957;28;20295;-46
2022/06/07 09:14:04;;;;;;;126.93;60.22;;;;;;;17.76;100.00;101277.31;5011504;28;20636;-48
2022/06/07 09:16:36;;;;;;;128.10;62.08;;;;;;;17.80;100.00;101277.75;5018735;28;20120;-46
2022/06/07 09:19:09;;;;;;;120.68;54.20;;;;;;;17.87;100.00;101273.22;5011104;28;20041;-48
2022/06/07 09:21:39;;;;;;;116.80;54.00;;;;;;;17.86;100.00;101272.41;5033195;28;20075;-46
2022/06/07 09:24:20;;;;;;;110.25;50.45;;;;;;;17.83;100.00;101264.66;5031435;28;20032;-46
2022/06/07 09:26:46;;;;;;;115.05;48.88;;;;;;;17.73;100.00;101271.47;5025736;28;20400;-49
2022/06/07 09:29:18;;;;;;;101.18;47.83;;;;;;;17.51;100.00;101285.03;5030980;28;20056;-46
2022/06/07 09:31:46;;;;;;;104.10;50.92;;;;;;;17.15;100.00;101278.69;5033602;28;20396;-47
2022/06/07 09:34:23;;;;;;;104.82;52.00;;;;;;;17.23;100.00;101282.31;5030687;28;20032;-45
2022/06/07 09:36:57;;;;;;;107.50;49.97;;;;;;;17.40;100.00;101278.31;5032574;28;20062;-45
2022/06/07 09:39:30;;;;;;;107.38;49.92;;;;;;;17.76;100.00;101277.31;5032089;28;20021;-45
2022/06/07 09:42:04;;;;;;;123.18;50.83;;;;;;;17.89;100.00;101279.28;5035528;28;20044;-46
2022/06/07 09:44:39;;;;;;;116.82;49.92;;;;;;;17.95;100.00;101272.25;5023922;28;20020;-45
2022/06/07 09:47:14;;;;;;;137.07;54.28;;;;;;;18.01;100.00;101271.47;5033331;28;20032;-48
2022/06/07 09:49:45;;;;;;;117.68;52.90;;;;;;;18.15;100.00;101269.66;5037491;28;20048;-46
2022/06/07 09:52:24;;;;;;;97.82;48.15;;;;;;;18.29;100.00;101271.38;5033523;28;20037;-45
2022/06/07 09:55:02;;;;;;;112.70;49.72;;;;;;;18.43;100.00;101264.13;5034096;28;20025;-48
2022/06/07 09:57:37;;;;;;;102.68;48.92;;;;;;;18.41;100.00;101268.91;5032993;28;20025;-44
2022/06/07 10:00:17;;;;;;;94.60;45.88;;;;;;;18.24;100.00;101272.00;5034120;28;20197;-47
2022/06/07 10:02:53;;;;;;;90.00;43.80;;;;;;;18.38;100.00;101263.91;5031548;28;20028;-46
2022/06/07 10:06:07;;;;;;;87.47;46.13;;;;;;;18.45;100.00;101270.19;5021462;28;20079;-47
2022/06/07 10:09:07;;;;;;;90.95;45.25;;;;;;;18.82;100.00;101259.88;4959061;28;20140;-46
2022/06/07 10:11:59;;;;;;;87.73;43.67;;;;;;;19.07;100.00;101262.84;5025491;28;20024;-46
2022/06/07 10:14:40;;;;;;;94.13;44.35;;;;;;;18.88;99.64;101261.78;5027213;28;20445;-45
2022/06/07 10:17:33;;;;;;;87.80;43.88;;;;;;;18.92;100.00;101262.19;5030944;28;20025;-45
2022/06/07 10:20:07;;;;;;;95.55;44.40;;;;;;;18.85;99.23;101259.50;5016277;28;20036;-48
2022/06/07 10:22:50;;;;;;;93.18;43.28;;;;;;;19.26;100.00;101258.47;5022105;28;20029;-46
2022/06/07 10:25:20;;;;;;;86.18;41.13;;;;;;;19.50;96.24;101262.44;5021674;28;20120;-47
2022/06/07 10:28:28;;;;;;;73.40;39.47;;;;;;;19.46;94.19;101261.16;5021949;28;20322;-45
2022/06/07 10:31:24;;;;;;;83.50;40.78;;;;;;;19.82;97.91;101257.16;5011004;28;20284;-48
2022/06/07 10:34:04;;;;;;;76.32;38.80;;;;;;;19.96;94.45;101254.44;5027075;28;20064;-48
2022/06/07 10:36:51;;;;;;;69.43;36.72;;;;;;;20.43;95.16;101247.75;5016130;28;20025;-46
2022/06/07 10:39:33;;;;;;;75.60;37.85;;;;;;;20.86;90.14;101249.00;5030023;28;20091;-45
2022/06/07 10:42:20;;;;;;;69.25;34.00;;;;;;;21.32;92.34;101247.81;5027446;28;20029;-46
2022/06/07 10:45:04;;;;;;;57.92;33.95;;;;;;;21.39;82.32;101259.44;5009654;28;20140;-46
2022/06/07 10:47:36;;;;;;;69.75;33.70;;;;;;;21.65;82.83;101245.84;5018373;28;20021;-47
2022/06/07 10:50:13;;;;;;;55.10;30.08;;;;;;;21.72;80.68;101247.44;5017594;28;20344;-48
2022/06/07 10:52:55;;;;;;;56.72;29.77;;;;;;;22.19;81.78;101243.34;5010977;28;20119;-47
2022/06/07 10:55:29;;;;;;;47.80;26.02;;;;;;;22.34;78.20;101236.47;5030520;28;20028;-49
2022/06/07 10:57:58;;;;;;;44.33;24.00;;;;;;;22.17;75.20;101246.31;5024575;28;20044;-45
2022/06/07 11:00:42;;;;;;;48.25;25.58;;;;;;;21.94;77.84;101236.09;5033781;28;20032;-45
2022/06/07 11:03:16;;;;;;;53.95;26.70;;;;;;;22.17;79.72;101240.84;5035440;28;20519;-44
2022/06/07 11:11:20;;;;;;;46.70;23.30;;;;;;;22.19;77.03;101225.13;5031266;28;20118;-47
2022/06/07 11:14:08;;;;;;;42.05;22.58;;;;;;;21.72;77.60;101235.72;5033776;28;20298;-45
2022/06/07 11:16:48;;;;;;;48.08;24.42;;;;;;;21.25;78.71;101230.75;5019573;28;20076;-44
2022/06/07 11:19:13;;;;;;;48.13;25.58;;;;;;;21.21;81.19;101233.03;5012645;28;20607;-46
2022/06/07 11:21:45;;;;;;;51.03;27.83;;;;;;;21.04;80.34;101231.94;5013864;28;20109;-46
2022/06/07 11:24:13;;;;;;;47.42;23.92;;;;;;;20.82;81.39;101235.03;5017879;28;20455;-49
2022/06/07 11:26:51;;;;;;;41.80;23.42;;;;;;;20.54;83.86;101234.56;5029706;28;20064;-47
2022/06/07 11:29:29;;;;;;;52.33;28.33;;;;;;;20.27;85.47;101237.44;5003550;28;20050;-49